createdAt,value
2023-05-13T00:02:25.977Z,10.35
2023-05-13T00:04:52.897Z,10.45
2023-05-13T00:07:20.113Z,10.46
2023-05-13T00:09:46.989Z,10.49
2023-05-13T00:12:13.921Z,10.49
2023-05-13T00:14:40.959Z,10.54
2023-05-13T00:17:07.902Z,10.53
2023-05-13T00:19:34.832Z,10.43
2023-05-13T00:22:01.722Z,10.38
2023-05-13T00:24:28.735Z,10.40
2023-05-13T00:26:55.539Z,10.35
2023-05-13T00:29:22.584Z,10.31
2023-05-13T00:31:49.475Z,10.26
2023-05-13T00:34:17.049Z,10.17
2023-05-13T00:36:44.602Z,10.14
2023-05-13T00:39:11.786Z,10.15
2023-05-13T00:42:04.549Z,10.17
2023-05-13T00:44:31.709Z,10.19
2023-05-13T00:46:59.381Z,10.19
2023-05-13T00:49:27.019Z,10.24
2023-05-13T00:51:55.342Z,10.16
2023-05-13T00:54:22.457Z,10.13
2023-05-13T00:56:49.354Z,10.10
2023-05-13T00:59:16.223Z,10.15
2023-05-13T01:02:10.883Z,10.03
2023-05-13T01:04:44.076Z,10.27
2023-05-13T01:07:22.803Z,10.27
2023-05-13T01:10:16.041Z,10.31
2023-05-13T01:12:46.628Z,10.24
2023-05-13T01:15:21.933Z,10.13
2023-05-13T01:18:00.008Z,9.96
2023-05-13T01:20:28.474Z,9.98
2023-05-13T01:22:56.716Z,9.97
2023-05-13T01:25:25.789Z,9.93
2023-05-13T01:27:53.549Z,9.92
2023-05-13T01:30:21.820Z,9.90
2023-05-13T01:32:50.491Z,9.79
2023-05-13T01:35:18.055Z,10.00
2023-05-13T01:37:49.095Z,10.08
2023-05-13T01:40:31.210Z,9.92
2023-05-13T01:43:02.094Z,9.79
2023-05-13T01:45:30.410Z,9.63
2023-05-13T01:47:57.894Z,9.57
2023-05-13T01:50:26.722Z,9.59
2023-05-13T01:52:53.694Z,9.54
2023-05-13T01:55:20.819Z,9.45
2023-05-13T01:57:48.842Z,9.37
2023-05-13T02:00:16.429Z,9.28
2023-05-13T02:02:43.203Z,9.29
2023-05-13T02:05:10.646Z,9.23
2023-05-13T02:07:38.285Z,9.17
2023-05-13T02:10:06.450Z,9.07
2023-05-13T02:12:33.453Z,9.05
2023-05-13T02:15:00.504Z,9.04
2023-05-13T02:17:27.481Z,9.04
2023-05-13T02:19:54.550Z,8.94
2023-05-13T02:22:21.378Z,8.94
2023-05-13T02:24:48.363Z,8.87
2023-05-13T02:27:16.497Z,8.76
2023-05-13T02:29:43.537Z,8.74
2023-05-13T02:32:11.437Z,8.56
2023-05-13T02:34:38.598Z,8.47
2023-05-13T02:37:05.949Z,8.55
2023-05-13T02:39:38.166Z,8.44
2023-05-13T02:42:05.727Z,8.39
2023-05-13T02:44:33.105Z,8.44
2023-05-13T02:47:01.051Z,8.38
2023-05-13T02:49:28.101Z,8.29
2023-05-13T02:51:55.273Z,8.35
2023-05-13T02:54:29.089Z,8.31
2023-05-13T02:56:56.211Z,8.29
2023-05-13T02:59:23.307Z,8.25
2023-05-13T03:01:50.350Z,8.24
2023-05-13T03:04:17.381Z,8.16
2023-05-13T03:06:44.550Z,8.14
2023-05-13T03:09:11.345Z,8.09
2023-05-13T03:11:38.386Z,8.07
2023-05-13T03:14:05.674Z,8.06
2023-05-13T03:16:32.869Z,7.91
2023-05-13T03:18:59.975Z,7.89
2023-05-13T03:21:27.279Z,7.87
2023-05-13T03:23:54.354Z,7.81
2023-05-13T03:26:21.955Z,7.80
2023-05-13T03:28:48.868Z,7.84
2023-05-13T03:31:16.882Z,7.89
2023-05-13T03:33:44.299Z,7.85
2023-05-13T03:36:12.513Z,7.81
2023-05-13T03:38:39.349Z,7.90
2023-05-13T03:41:06.420Z,7.89
2023-05-13T03:43:34.028Z,7.88
2023-05-13T03:46:03.752Z,7.78
2023-05-13T03:48:31.270Z,7.84
2023-05-13T03:51:02.050Z,7.94
2023-05-13T03:53:29.505Z,7.97
2023-05-13T03:55:56.350Z,8.02
2023-05-13T03:58:23.420Z,8.13
2023-05-13T04:00:50.346Z,8.27
2023-05-13T04:03:17.808Z,8.23
2023-05-13T04:05:48.380Z,8.30
2023-05-13T04:08:16.017Z,8.45
2023-05-13T04:10:43.703Z,8.42
2023-05-13T04:13:11.410Z,8.43
2023-05-13T04:15:38.500Z,8.49
2023-05-13T04:18:06.818Z,8.60
2023-05-13T04:20:34.904Z,8.68
2023-05-13T04:23:01.961Z,8.63
2023-05-13T04:25:29.885Z,8.79
2023-05-13T04:27:56.945Z,8.82
2023-05-13T04:30:29.899Z,9.03
2023-05-13T04:32:57.481Z,8.95
2023-05-13T04:35:24.875Z,8.98
2023-05-13T04:37:55.620Z,9.12
2023-05-13T04:40:23.218Z,9.21
2023-05-13T04:42:54.880Z,9.23
2023-05-13T04:45:29.618Z,9.34
2023-05-13T04:47:58.503Z,9.49
2023-05-13T04:50:25.590Z,9.60
2023-05-13T04:52:55.008Z,9.72
2023-05-13T04:55:23.041Z,9.77
2023-05-13T04:57:50.973Z,9.98
2023-05-13T05:00:18.781Z,10.00
2023-05-13T05:02:48.977Z,10.28
2023-05-13T05:05:18.257Z,10.39
2023-05-13T05:07:46.353Z,10.54
2023-05-13T05:10:15.231Z,10.65
2023-05-13T05:12:48.770Z,10.92
2023-05-13T05:15:15.996Z,11.08
2023-05-13T05:17:46.421Z,11.11
2023-05-13T05:20:13.660Z,11.25
2023-05-13T05:22:42.349Z,11.27
2023-05-13T05:25:13.480Z,11.50
2023-05-13T05:27:43.435Z,11.76
2023-05-13T05:30:11.368Z,11.91
2023-05-13T05:35:39.791Z,12.27
2023-05-13T05:38:12.658Z,12.37
2023-05-13T05:40:48.695Z,12.53
2023-05-13T05:43:16.620Z,12.63
2023-05-13T05:45:44.385Z,12.82
2023-05-13T05:48:15.726Z,12.90
2023-05-13T05:50:43.000Z,13.02
2023-05-13T05:53:13.107Z,13.17
2023-05-13T05:55:40.486Z,13.25
2023-05-13T05:58:19.849Z,13.30
2023-05-13T06:00:47.089Z,13.37
2023-05-13T06:03:14.348Z,13.61
2023-05-13T06:05:41.683Z,13.74
2023-05-13T06:08:08.647Z,13.90
2023-05-13T06:10:35.478Z,13.93
2023-05-13T06:13:02.590Z,14.01
2023-05-13T06:15:30.159Z,14.24
2023-05-13T06:17:57.754Z,14.49
2023-05-13T06:20:25.353Z,14.67
2023-05-13T06:22:52.421Z,14.66
2023-05-13T06:25:19.298Z,14.86
2023-05-13T06:27:46.579Z,15.07
2023-05-13T06:30:13.565Z,15.18
2023-05-13T06:32:53.464Z,15.43
2023-05-13T06:35:27.637Z,15.58
2023-05-13T06:37:54.724Z,15.59
2023-05-13T06:40:22.182Z,15.71
2023-05-13T06:42:49.440Z,15.90
2023-05-13T06:45:23.648Z,15.93
2023-05-13T06:47:51.801Z,15.95
2023-05-13T06:50:19.805Z,16.03
2023-05-13T06:52:47.360Z,16.22
2023-05-13T06:55:14.926Z,16.38
2023-05-13T06:57:43.808Z,16.54
2023-05-13T07:00:11.624Z,16.64
2023-05-13T07:02:39.265Z,16.51
2023-05-13T07:05:06.926Z,16.58
2023-05-13T07:07:34.488Z,16.63
2023-05-13T07:10:01.608Z,16.69
2023-05-13T07:12:28.508Z,16.58
2023-05-13T07:14:55.594Z,16.52
2023-05-13T07:17:31.477Z,16.63
2023-05-13T07:19:58.447Z,16.69
2023-05-13T07:22:25.367Z,16.75
2023-05-13T07:24:52.430Z,16.80
2023-05-13T07:27:19.301Z,16.93
2023-05-13T07:29:46.553Z,17.16
2023-05-13T07:32:13.338Z,17.49
2023-05-13T07:34:40.764Z,17.88
2023-05-13T07:37:07.516Z,18.14
2023-05-13T07:39:34.343Z,18.45
2023-05-13T07:42:02.294Z,18.55
2023-05-13T07:44:29.924Z,18.33
2023-05-13T07:46:56.908Z,18.33
2023-05-13T07:49:24.089Z,18.43
2023-05-13T07:51:50.927Z,18.37
2023-05-13T07:54:18.666Z,18.57
2023-05-13T07:56:46.695Z,18.65
2023-05-13T07:59:13.716Z,18.29
2023-05-13T08:01:40.770Z,18.06
2023-05-13T08:04:08.092Z,18.31
2023-05-13T08:06:35.127Z,18.28
2023-05-13T08:09:02.255Z,18.25
2023-05-13T08:11:29.149Z,18.49
2023-05-13T08:13:56.044Z,18.68
2023-05-13T08:16:23.385Z,18.73
2023-05-13T08:18:50.404Z,18.75
2023-05-13T08:21:17.395Z,18.89
2023-05-13T08:23:45.866Z,18.84
2023-05-13T08:26:13.897Z,18.77
2023-05-13T08:28:42.281Z,19.02
2023-05-13T08:31:12.623Z,18.91
2023-05-13T08:33:41.911Z,18.83
2023-05-13T08:36:09.955Z,18.89
2023-05-13T08:38:36.807Z,18.97
2023-05-13T08:41:07.035Z,18.98
2023-05-13T08:43:34.536Z,19.17
2023-05-13T08:46:04.375Z,19.13
2023-05-13T08:48:32.344Z,19.23
2023-05-13T08:51:01.294Z,18.99
2023-05-13T08:53:28.611Z,18.99
2023-05-13T08:55:56.742Z,19.14
2023-05-13T08:58:25.255Z,19.03
2023-05-13T09:00:54.264Z,18.90
2023-05-13T09:03:21.719Z,18.56
2023-05-13T09:05:48.865Z,18.79
2023-05-13T09:08:15.629Z,18.98
2023-05-13T09:10:42.786Z,19.06
2023-05-13T09:13:12.082Z,19.18
2023-05-13T09:15:42.402Z,19.01
2023-05-13T09:18:09.523Z,19.11
2023-05-13T09:20:36.876Z,19.19
2023-05-13T09:23:09.277Z,19.23
2023-05-13T09:25:37.753Z,19.35
2023-05-13T09:28:07.751Z,19.24
2023-05-13T09:30:36.851Z,19.35
2023-05-13T09:33:12.133Z,19.35
2023-05-13T09:35:44.583Z,19.19
2023-05-13T09:38:39.242Z,19.37
2023-05-13T09:41:06.489Z,19.12
2023-05-13T09:43:33.928Z,19.47
2023-05-13T09:46:05.346Z,19.64
2023-05-13T09:48:40.266Z,19.74
2023-05-13T09:51:07.588Z,19.61
2023-05-13T09:53:35.122Z,19.59
2023-05-13T09:56:38.224Z,19.82
2023-05-13T09:59:05.155Z,19.84
2023-05-13T10:01:35.133Z,20.04
2023-05-13T10:04:03.160Z,20.08
2023-05-13T10:06:31.245Z,20.06
2023-05-13T10:09:01.377Z,20.28
2023-05-13T10:11:31.464Z,20.07
2023-05-13T10:14:05.256Z,20.38
2023-05-13T10:16:32.437Z,20.26
2023-05-13T10:18:59.832Z,20.16
2023-05-13T10:21:31.175Z,20.44
2023-05-13T10:23:58.477Z,20.26
2023-05-13T10:26:26.254Z,20.27
2023-05-13T10:28:55.282Z,20.13
2023-05-13T10:31:22.139Z,20.09
2023-05-13T10:33:49.255Z,20.10
2023-05-13T10:36:47.193Z,20.29
2023-05-13T10:39:32.752Z,20.50
2023-05-13T10:42:30.785Z,20.49
2023-05-13T10:45:01.531Z,20.63
2023-05-13T10:47:32.769Z,20.75
2023-05-13T10:50:04.963Z,20.92
2023-05-13T10:52:48.089Z,20.84
2023-05-13T10:55:17.412Z,20.99
2023-05-13T10:58:10.997Z,20.78
2023-05-13T11:01:08.009Z,20.88
2023-05-13T11:03:35.345Z,20.74
2023-05-13T11:06:16.478Z,20.89
2023-05-13T11:08:45.574Z,20.97
2023-05-13T11:11:21.430Z,20.80
2023-05-13T11:14:00.343Z,20.92
2023-05-13T11:16:27.403Z,20.96
2023-05-13T11:18:54.806Z,21.09
2023-05-13T11:21:35.778Z,20.98
2023-05-13T11:24:05.788Z,21.25
2023-05-13T11:26:46.925Z,21.50
2023-05-13T11:29:14.658Z,21.63
2023-05-13T11:31:50.354Z,21.82
2023-05-13T11:34:18.773Z,21.98
2023-05-13T11:36:56.813Z,21.93
2023-05-13T11:39:26.609Z,21.93
2023-05-13T11:41:57.303Z,22.12
2023-05-13T11:44:25.537Z,22.16
2023-05-13T11:46:59.622Z,22.24
2023-05-13T11:49:44.052Z,22.33
2023-05-13T11:52:12.063Z,22.71
2023-05-13T11:54:52.565Z,22.45
2023-05-13T11:57:19.762Z,22.14
2023-05-13T12:00:07.658Z,22.09
2023-05-13T12:02:40.536Z,22.11
2023-05-13T12:05:10.066Z,22.04
2023-05-13T12:07:38.468Z,22.05
2023-05-13T12:10:07.069Z,22.27
2023-05-13T12:12:36.078Z,22.41
2023-05-13T12:15:05.289Z,22.79
2023-05-13T12:17:34.261Z,22.79
2023-05-13T12:20:13.332Z,22.93
2023-05-13T12:22:43.587Z,22.80
2023-05-13T12:25:32.666Z,22.57
2023-05-13T12:28:00.437Z,22.39
2023-05-13T12:30:34.295Z,22.39
2023-05-13T12:33:01.780Z,22.61
2023-05-13T12:35:28.638Z,22.75
2023-05-13T12:38:05.538Z,22.76
2023-05-13T12:40:32.923Z,22.83
2023-05-13T12:43:03.454Z,22.87
2023-05-13T12:45:31.398Z,22.98
2023-05-13T12:47:59.392Z,22.75
2023-05-13T12:50:26.873Z,22.81
2023-05-13T12:52:54.558Z,22.68
2023-05-13T12:55:21.791Z,22.49
2023-05-13T12:58:03.245Z,22.21
2023-05-13T13:00:31.241Z,21.85
2023-05-13T13:02:58.211Z,21.54
2023-05-13T13:05:26.370Z,21.61
2023-05-13T13:07:53.411Z,21.68
2023-05-13T13:10:20.379Z,21.48
2023-05-13T13:12:47.433Z,21.57
2023-05-13T13:15:14.205Z,21.79
2023-05-13T13:17:41.016Z,21.98
2023-05-13T13:20:08.388Z,22.12
2023-05-13T13:22:39.143Z,22.37
2023-05-13T13:25:07.126Z,22.52
2023-05-13T13:27:35.171Z,22.55
2023-05-13T13:30:02.707Z,22.29
2023-05-13T13:32:29.839Z,22.19
2023-05-13T13:34:58.326Z,22.20
2023-05-13T13:37:25.849Z,22.10
2023-05-13T13:39:52.968Z,21.92
2023-05-13T13:42:20.320Z,21.99
2023-05-13T13:44:47.138Z,21.95
2023-05-13T13:47:14.856Z,21.88
2023-05-13T13:49:41.598Z,21.86
2023-05-13T13:52:08.599Z,21.88
2023-05-13T13:54:35.406Z,21.91
2023-05-13T13:57:02.495Z,21.86
2023-05-13T13:59:29.569Z,21.82
2023-05-13T14:01:56.879Z,21.87
2023-05-13T14:04:27.391Z,21.80
2023-05-13T14:06:57.779Z,21.88
2023-05-13T14:09:25.235Z,21.89
2023-05-13T14:11:52.077Z,21.86
2023-05-13T14:14:19.188Z,21.91
2023-05-13T14:16:46.132Z,21.87
2023-05-13T14:19:13.360Z,21.88
2023-05-13T14:21:40.383Z,21.87
2023-05-13T14:24:08.988Z,21.85
2023-05-13T14:26:35.879Z,21.91
2023-05-13T14:29:02.910Z,21.93
2023-05-13T14:31:30.515Z,21.63
2023-05-13T14:33:58.341Z,21.69
2023-05-13T14:36:26.836Z,21.81
2023-05-13T14:38:54.544Z,21.85
2023-05-13T14:41:22.747Z,21.74
2023-05-13T14:43:49.695Z,21.75
2023-05-13T14:46:16.682Z,21.83
2023-05-13T14:48:43.932Z,21.56
2023-05-13T14:51:12.443Z,21.71
2023-05-13T14:53:42.753Z,21.84
2023-05-13T14:56:09.982Z,21.82
2023-05-13T14:58:37.132Z,21.81
2023-05-13T15:01:04.266Z,21.79
2023-05-13T15:03:31.411Z,21.94
2023-05-13T15:05:58.384Z,22.00
2023-05-13T15:08:25.780Z,22.05
2023-05-13T15:10:52.697Z,21.92
2023-05-13T15:13:19.794Z,21.77
2023-05-13T15:15:46.889Z,21.73
2023-05-13T15:18:14.209Z,21.85
2023-05-13T15:20:41.442Z,21.81
2023-05-13T15:23:08.382Z,21.63
2023-05-13T15:25:36.157Z,21.54
2023-05-13T15:28:03.135Z,21.57
2023-05-13T15:30:30.237Z,21.46
2023-05-13T15:32:57.307Z,21.49
2023-05-13T15:35:24.278Z,21.55
2023-05-13T15:37:51.125Z,21.63
2023-05-13T15:40:17.959Z,21.80
2023-05-13T15:42:44.960Z,22.05
2023-05-13T15:45:12.055Z,22.59
2023-05-13T15:47:38.899Z,23.11
2023-05-13T15:50:06.994Z,23.33
2023-05-13T15:52:33.831Z,23.15
2023-05-13T15:55:01.069Z,23.51
2023-05-13T15:57:27.824Z,23.85
2023-05-13T15:59:54.834Z,23.86
2023-05-13T16:02:21.724Z,24.08
2023-05-13T16:04:48.700Z,24.39
2023-05-13T16:07:15.484Z,24.42
2023-05-13T16:09:42.626Z,24.35
2023-05-13T16:16:25.840Z,24.42
2023-05-13T16:18:54.209Z,24.43
2023-05-13T16:21:21.503Z,24.15
2023-05-13T16:23:48.341Z,23.70
2023-05-13T16:26:15.423Z,23.24
2023-05-13T16:28:42.202Z,22.75
2023-05-13T16:34:00.301Z,21.80
2023-05-13T16:36:27.195Z,21.58
2023-05-13T16:38:54.008Z,21.28
2023-05-13T16:41:21.582Z,21.04
2023-05-13T16:43:48.340Z,20.84
2023-05-13T16:46:16.681Z,20.74
2023-05-13T16:49:05.212Z,20.54
2023-05-13T16:51:32.034Z,20.32
2023-05-13T16:57:39.286Z,19.84
2023-05-13T17:00:07.449Z,19.75
2023-05-13T17:02:34.647Z,19.65
2023-05-13T17:05:01.620Z,19.48
2023-05-13T17:07:28.413Z,19.45
2023-05-13T17:09:55.474Z,19.28
2023-05-13T17:12:22.250Z,19.08
2023-05-13T17:14:50.394Z,18.88
2023-05-13T17:17:17.158Z,18.80
2023-05-13T17:19:44.188Z,18.59
2023-05-13T17:22:20.062Z,18.43
2023-05-13T17:24:47.174Z,18.28
2023-05-13T17:27:14.093Z,18.10
2023-05-13T17:29:41.141Z,17.91
2023-05-13T17:32:08.132Z,17.76
2023-05-13T17:34:35.144Z,17.63
2023-05-13T17:37:02.132Z,17.60
2023-05-13T17:39:28.926Z,17.50
2023-05-13T17:41:56.026Z,17.37
2023-05-13T17:44:24.001Z,17.25
2023-05-13T17:46:50.947Z,17.13
2023-05-13T17:49:17.964Z,17.01
2023-05-13T17:51:44.877Z,16.89
2023-05-13T17:54:11.774Z,16.86
2023-05-13T17:56:38.737Z,16.75
2023-05-13T17:59:06.684Z,16.60
2023-05-13T18:01:33.656Z,16.47
2023-05-13T18:04:00.890Z,16.42
2023-05-13T18:06:27.686Z,16.44
2023-05-13T18:08:54.715Z,16.42
2023-05-13T18:11:22.199Z,16.21
2023-05-13T18:13:49.120Z,16.25
2023-05-13T18:16:19.484Z,16.11
2023-05-13T18:18:48.627Z,15.96
2023-05-13T18:21:16.014Z,15.91
2023-05-13T18:23:45.809Z,15.84
2023-05-13T18:26:12.656Z,15.76
2023-05-13T18:28:41.597Z,15.74
2023-05-13T18:31:08.434Z,15.63
2023-05-13T18:33:35.385Z,15.50
2023-05-13T18:36:02.420Z,15.44
2023-05-13T18:38:29.207Z,15.41
2023-05-13T18:40:56.226Z,15.42
2023-05-13T18:43:23.228Z,15.30
2023-05-13T18:45:50.285Z,15.16
2023-05-13T18:48:17.509Z,14.97
2023-05-13T18:50:44.501Z,14.86
2023-05-13T18:53:11.419Z,14.69
2023-05-13T18:55:38.495Z,14.57
2023-05-13T18:58:05.415Z,14.50
2023-05-13T19:00:32.181Z,14.32
2023-05-13T19:02:59.503Z,14.39
2023-05-13T19:05:26.712Z,14.31
2023-05-13T19:07:53.693Z,14.38
2023-05-13T19:10:20.763Z,14.35
2023-05-13T19:12:47.801Z,14.29
2023-05-13T19:15:14.713Z,14.13
2023-05-13T19:17:42.294Z,14.11
2023-05-13T19:20:09.854Z,14.05
2023-05-13T19:22:36.958Z,14.06
2023-05-13T19:25:05.271Z,14.01
2023-05-13T19:27:32.364Z,14.07
2023-05-13T19:29:59.242Z,14.01
2023-05-13T19:32:26.344Z,13.95
2023-05-13T19:34:53.232Z,13.92
2023-05-13T19:37:20.442Z,13.96
2023-05-13T19:39:47.349Z,13.90
2023-05-13T19:42:15.248Z,13.81
2023-05-13T19:44:42.296Z,13.85
2023-05-13T19:47:09.383Z,13.80
2023-05-13T19:49:36.174Z,13.65
2023-05-13T19:52:03.284Z,13.54
2023-05-13T19:54:30.176Z,13.64
2023-05-13T19:56:57.356Z,13.58
2023-05-13T19:59:24.121Z,13.44
2023-05-13T20:01:52.079Z,13.44
2023-05-13T20:04:19.106Z,13.44
2023-05-13T20:06:46.065Z,13.38
2023-05-13T20:09:12.895Z,13.35
2023-05-13T20:11:39.822Z,13.25
2023-05-13T20:14:06.721Z,13.03
2023-05-13T20:16:33.653Z,12.94
2023-05-13T20:19:00.648Z,12.84
2023-05-13T20:21:27.712Z,12.67
2023-05-13T20:23:54.738Z,12.52
2023-05-13T20:26:22.025Z,12.50
2023-05-13T20:28:51.481Z,12.55
2023-05-13T20:31:18.497Z,12.50
2023-05-13T20:33:45.790Z,12.46
2023-05-13T20:36:16.356Z,12.41
2023-05-13T20:38:46.733Z,12.36
2023-05-13T20:41:13.598Z,12.36
2023-05-13T20:43:44.875Z,12.26
2023-05-13T20:46:18.984Z,12.16
2023-05-13T20:48:51.604Z,12.08
2023-05-13T20:51:18.598Z,11.90
2023-05-13T20:53:47.547Z,11.81
2023-05-13T20:57:04.061Z,11.82
2023-05-13T20:59:31.415Z,11.70
2023-05-13T21:01:58.792Z,11.62
2023-05-13T21:04:25.858Z,11.59
2023-05-13T21:06:57.341Z,11.49
2023-05-13T21:09:25.360Z,11.43
2023-05-13T21:11:52.152Z,11.42
2023-05-13T21:14:19.256Z,11.37
2023-05-13T21:16:46.060Z,11.38
2023-05-13T21:19:22.753Z,11.34
2023-05-13T21:21:50.319Z,11.29
2023-05-13T21:24:18.981Z,11.30
2023-05-13T21:26:47.060Z,11.30
2023-05-13T21:29:13.994Z,11.18
2023-05-13T21:31:41.108Z,11.18
2023-05-13T21:34:08.274Z,11.11
2023-05-13T21:36:38.890Z,11.06
2023-05-13T21:39:07.169Z,10.98
2023-05-13T21:41:34.152Z,10.81
2023-05-13T21:44:01.140Z,10.85
2023-05-13T21:46:28.256Z,10.77
2023-05-13T21:48:55.359Z,10.86
2023-05-13T21:51:22.482Z,10.72
2023-05-13T21:53:49.385Z,10.77
2023-05-13T21:56:16.357Z,10.77
2023-05-13T21:58:44.713Z,10.77
2023-05-13T22:01:11.762Z,10.73
2023-05-13T22:03:38.785Z,10.53
2023-05-13T22:06:05.857Z,10.55
2023-05-13T22:08:33.622Z,10.52
2023-05-13T22:11:01.462Z,10.48
2023-05-13T22:13:28.332Z,10.47
2023-05-13T22:15:55.474Z,10.34
2023-05-13T22:18:23.787Z,10.20
2023-05-13T22:20:51.268Z,10.29
2023-05-13T22:23:18.166Z,10.29
2023-05-13T22:25:45.088Z,10.25
2023-05-13T22:28:12.095Z,10.21
2023-05-13T22:30:39.140Z,10.13
2023-05-13T22:33:06.297Z,10.21
2023-05-13T22:35:36.481Z,10.17
2023-05-13T22:38:06.598Z,9.96
2023-05-13T22:40:33.625Z,10.07
2023-05-13T22:43:00.794Z,9.98
2023-05-13T22:45:27.737Z,9.94
2023-05-13T22:47:55.924Z,9.99
2023-05-13T22:50:23.321Z,9.93
2023-05-13T22:52:50.412Z,9.94
2023-05-13T22:55:17.503Z,9.94
2023-05-13T22:57:44.281Z,9.92
2023-05-13T23:00:12.081Z,9.80
2023-05-13T23:02:38.884Z,9.71
2023-05-13T23:05:06.345Z,9.52
2023-05-13T23:07:33.124Z,9.54
2023-05-13T23:09:59.928Z,9.51
2023-05-13T23:12:26.863Z,9.56
2023-05-13T23:14:53.874Z,9.48
2023-05-13T23:17:20.655Z,9.45
2023-05-13T23:19:47.690Z,9.49
2023-05-13T23:22:14.550Z,9.60
2023-05-13T23:24:41.438Z,9.59
2023-05-13T23:27:08.242Z,9.55
2023-05-13T23:29:35.211Z,9.53
2023-05-13T23:32:03.301Z,9.50
2023-05-13T23:34:31.365Z,9.44
2023-05-13T23:36:58.269Z,9.42
2023-05-13T23:39:25.084Z,9.41
2023-05-13T23:41:51.964Z,9.28
2023-05-13T23:44:19.064Z,9.33
2023-05-13T23:46:45.890Z,9.28
2023-05-13T23:49:13.021Z,9.37
2023-05-13T23:51:39.760Z,9.29
2023-05-13T23:54:08.377Z,9.36
2023-05-13T23:56:35.339Z,9.31
2023-05-13T23:59:02.272Z,9.27
